Time;durP1;ratioP1;P1;durP2;ratioP2;P2;SDS_P1;SDS_P2;PMS_P1;PMS_P2;Temp;Humidity;BMP_temperature;BMP_pressure;BME280_temperature;BME280_humidity;BME280_pressure;Samples;Min_cycle;Max_cycle;Signal;HPM_P1;HPM_P2
2021/12/07 00:02:10;;;;;;;9.27;6.70;;;;;;;;;;4993021;28;20573;-65
2021/12/07 00:04:38;;;;;;;10.57;6.38;;;;;;;;;;4992932;28;20042;-65
2021/12/07 00:07:05;;;;;;;9.80;6.47;;;;;;;;;;4992874;28;20516;-65
2021/12/07 00:09:32;;;;;;;8.50;6.40;;;;;;;;;;4993120;28;20420;-65
2021/12/07 00:12:03;;;;;;;9.80;6.20;;;;;;;;;;4992939;28;20181;-65
2021/12/07 00:14:37;;;;;;;8.77;6.37;;;;;;;;;;4992919;28;20050;-65
2021/12/07 00:17:04;;;;;;;10.15;6.78;;;;;;;;;;4992787;28;20054;-66
2021/12/07 00:19:31;;;;;;;9.15;5.82;;;;;;;;;;4992883;28;20086;-65
2021/12/07 00:21:58;;;;;;;8.85;6.03;;;;;;;;;;4992976;28;20109;-66
2021/12/07 00:24:24;;;;;;;10.88;6.72;;;;;;;;;;4992591;28;20069;-66
2021/12/07 00:26:51;;;;;;;7.93;5.32;;;;;;;;;;5006862;28;20046;-66
2021/12/07 00:29:18;;;;;;;8.35;5.70;;;;;;;;;;5012373;28;20334;-66
2021/12/07 00:31:52;;;;;;;6.95;5.60;;;;;;;;;;5012351;28;20053;-66
2021/12/07 00:34:41;;;;;;;7.68;5.68;;;;;;;;;;5012265;28;20104;-66
2021/12/07 00:37:09;;;;;;;7.75;5.55;;;;;;;;;;5012169;28;20112;-65
2021/12/07 00:39:36;;;;;;;7.03;5.00;;;;;;;;;;5012231;28;20049;-65
2021/12/07 00:42:03;;;;;;;7.07;4.75;;;;;;;;;;5011985;28;20050;-65
2021/12/07 00:44:30;;;;;;;6.90;5.50;;;;;;;;;;5011935;28;20050;-65
2021/12/07 00:46:57;;;;;;;5.95;4.60;;;;;;;;;;5011963;28;20101;-65
2021/12/07 00:49:23;;;;;;;7.25;5.25;;;;;;;;;;5011917;28;20050;-65
2021/12/07 00:51:50;;;;;;;6.10;5.45;;;;;;;;;;5011981;28;20066;-65
2021/12/07 00:54:17;;;;;;;6.18;4.45;;;;;;;;;;5011800;28;20555;-66
2021/12/07 00:56:44;;;;;;;6.15;4.78;;;;;;;;;;5011893;28;20049;-65
2021/12/07 00:59:10;;;;;;;6.75;4.72;;;;;;;;;;5011871;28;20050;-66
2021/12/07 01:01:37;;;;;;;6.35;5.22;;;;;;;;;;5008755;28;20046;-66
2021/12/07 01:04:04;;;;;;;7.72;4.88;;;;;;;;;;4991996;28;20050;-66
2021/12/07 01:06:44;;;;;;;6.85;4.00;;;;;;;;;;4992243;28;20050;-66
2021/12/07 01:25:52;;;;;;;7.18;5.00;;;;;;;;;;5000983;28;20444;-65
2021/12/07 01:30:58;;;;;;;5.30;4.20;;;;;;;;;;5015501;28;20057;-65
2021/12/07 01:36:48;;;;;;;5.32;3.92;;;;;;;;;;5015404;28;20516;-65
2021/12/07 01:52:38;;;;;;;4.82;3.35;;;;;;;;;;4995614;28;20055;-65
2021/12/07 01:59:31;;;;;;;3.70;2.88;;;;;;;;;;4995234;28;20085;-66
2021/12/07 02:00:42;;;;;;;3.95;3.00;;;;;;;;;;4995630;28;20077;-66
2021/12/07 02:03:09;;;;;;;4.65;2.85;;;;;;;;;;5011300;28;20068;-66
2021/12/07 02:05:36;;;;;;;3.90;2.92;;;;;;;;;;5014904;28;20136;-65
2021/12/07 02:08:03;;;;;;;3.88;2.67;;;;;;;;;;5014817;28;20057;-65
2021/12/07 02:10:32;;;;;;;4.78;2.95;;;;;;;;;;5013731;28;20081;-66
2021/12/07 02:13:04;;;;;;;5.28;3.15;;;;;;;;;;5014864;28;20505;-65
2021/12/07 02:15:32;;;;;;;5.20;3.65;;;;;;;;;;5014899;28;20125;-65
2021/12/07 02:17:59;;;;;;;3.95;2.97;;;;;;;;;;5014612;28;20049;-65
2021/12/07 02:20:29;;;;;;;4.30;2.60;;;;;;;;;;5014701;28;20467;-65
2021/12/07 02:22:55;;;;;;;3.97;2.88;;;;;;;;;;5013195;28;20049;-65
2021/12/07 02:25:22;;;;;;;6.30;2.97;;;;;;;;;;5014661;28;20045;-65
2021/12/07 02:27:49;;;;;;;4.57;2.80;;;;;;;;;;5014332;28;20107;-66
2021/12/07 02:30:20;;;;;;;5.15;3.20;;;;;;;;;;5014624;28;20046;-65
2021/12/07 02:32:47;;;;;;;3.47;2.67;;;;;;;;;;5014379;28;20112;-65
2021/12/07 02:35:21;;;;;;;4.35;3.00;;;;;;;;;;5012923;28;20194;-65
2021/12/07 02:37:48;;;;;;;3.97;2.90;;;;;;;;;;5014248;28;20437;-65
2021/12/07 02:40:14;;;;;;;6.15;3.30;;;;;;;;;;5014368;28;20053;-65
2021/12/07 02:42:41;;;;;;;3.92;2.67;;;;;;;;;;5014213;28;20050;-65
2021/12/07 02:45:08;;;;;;;2.90;2.58;;;;;;;;;;4999073;28;20050;-65
2021/12/07 02:47:35;;;;;;;4.15;2.97;;;;;;;;;;4994595;28;20112;-66
2021/12/07 02:50:04;;;;;;;4.50;2.95;;;;;;;;;;4994258;28;20410;-65
2021/12/07 02:52:31;;;;;;;4.43;3.20;;;;;;;;;;5012516;28;20053;-65
2021/12/07 02:54:58;;;;;;;5.43;2.97;;;;;;;;;;5013878;28;20054;-65
2021/12/07 02:57:24;;;;;;;5.63;3.25;;;;;;;;;;5013841;28;20096;-65
2021/12/07 03:00:07;;;;;;;4.65;2.70;;;;;;;;;;5013930;28;20475;-65
2021/12/07 03:02:41;;;;;;;3.88;2.60;;;;;;;;;;4994246;28;20109;-65
2021/12/07 03:05:23;;;;;;;3.50;2.92;;;;;;;;;;4994214;28;20046;-65
2021/12/07 03:27:04;;;;;;;5.13;2.60;;;;;;;;;;4993813;28;20046;-66
2021/12/07 03:29:30;;;;;;;3.55;2.67;;;;;;;;;;4993889;28;20054;-65
2021/12/07 03:31:57;;;;;;;3.90;2.60;;;;;;;;;;5001462;28;20051;-65
2021/12/07 03:34:24;;;;;;;3.00;2.30;;;;;;;;;;5010477;28;20056;-65
2021/12/07 03:36:50;;;;;;;3.63;2.38;;;;;;;;;;5011147;28;20077;-65
2021/12/07 03:39:17;;;;;;;2.88;2.30;;;;;;;;;;5012183;28;20054;-66
2021/12/07 03:41:43;;;;;;;3.92;2.92;;;;;;;;;;5011750;28;20047;-65
2021/12/07 03:44:10;;;;;;;2.63;2.20;;;;;;;;;;5010861;28;20051;-65
2021/12/07 03:46:37;;;;;;;1.77;1.58;;;;;;;;;;5009238;28;20081;-65
2021/12/07 03:49:03;;;;;;;2.80;2.17;;;;;;;;;;5010399;28;20055;-65
2021/12/07 03:51:30;;;;;;;3.17;2.05;;;;;;;;;;5011790;28;20082;-65
2021/12/07 03:53:56;;;;;;;3.90;2.17;;;;;;;;;;5009531;28;20050;-65
2021/12/07 03:56:23;;;;;;;3.92;2.13;;;;;;;;;;5008959;28;20579;-66
2021/12/07 03:58:50;;;;;;;2.83;2.30;;;;;;;;;;4998629;28;20421;-65
2021/12/07 04:01:17;;;;;;;3.72;2.17;;;;;;;;;;5005828;28;20128;-65
2021/12/07 04:03:45;;;;;;;4.53;2.20;;;;;;;;;;5013528;28;20054;-64
2021/12/07 04:06:12;;;;;;;2.90;2.10;;;;;;;;;;5012652;28;20053;-65
2021/12/07 04:08:41;;;;;;;3.75;2.00;;;;;;;;;;5012777;28;20058;-64
2021/12/07 04:11:07;;;;;;;4.15;2.25;;;;;;;;;;5012669;28;20736;-64
2021/12/07 04:13:34;;;;;;;3.13;2.55;;;;;;;;;;5012843;28;20045;-65
2021/12/07 04:16:08;;;;;;;4.00;2.20;;;;;;;;;;5012579;28;20060;-65
2021/12/07 04:18:35;;;;;;;3.83;2.30;;;;;;;;;;5012537;28;20592;-65
2021/12/07 04:21:02;;;;;;;3.47;2.30;;;;;;;;;;5012580;28;20519;-65
2021/12/07 04:23:31;;;;;;;2.97;2.10;;;;;;;;;;5012477;28;20050;-65
2021/12/07 04:26:03;;;;;;;3.67;2.58;;;;;;;;;;5012394;28;20160;-65
2021/12/07 04:28:30;;;;;;;2.72;2.20;;;;;;;;;;5012496;28;20100;-65
2021/12/07 04:30:57;;;;;;;4.90;2.53;;;;;;;;;;5012341;28;20420;-65
2021/12/07 04:33:23;;;;;;;3.15;2.35;;;;;;;;;;5012161;28;20073;-64
2021/12/07 04:35:50;;;;;;;5.35;2.10;;;;;;;;;;5012318;28;20485;-64
2021/12/07 04:38:18;;;;;;;3.50;2.30;;;;;;;;;;5011135;28;20496;-65
2021/12/07 04:40:45;;;;;;;2.95;2.00;;;;;;;;;;5012175;28;20108;-64
2021/12/07 04:43:12;;;;;;;5.28;1.67;;;;;;;;;;5012134;28;20057;-65
2021/12/07 04:45:55;;;;;;;8.73;2.28;;;;;;;;;;5011566;28;20045;-65
2021/12/07 04:59:24;;;;;;;5.75;2.10;;;;;;;;;;4992389;28;20051;-64
2021/12/07 05:01:51;;;;;;;4.32;2.35;;;;;;;;;;4992293;28;20121;-64
2021/12/07 05:04:23;;;;;;;4.25;1.85;;;;;;;;;;5001444;28;20050;-65
2021/12/07 05:06:55;;;;;;;1.98;1.50;;;;;;;;;;5011842;28;20049;-64
2021/12/07 05:12:22;;;;;;;4.07;1.60;;;;;;;;;;5011853;28;20132;-64
2021/12/07 05:14:58;;;;;;;3.45;1.23;;;;;;;;;;5011747;28;20046;-64
2021/12/07 05:39:07;;;;;;;4.20;2.45;;;;;;;;;;4991869;28;20054;-65
2021/12/07 05:41:34;;;;;;;2.92;2.20;;;;;;;;;;4992111;28;20050;-64
2021/12/07 05:44:02;;;;;;;4.18;2.45;;;;;;;;;;4996719;28;20071;-64
2021/12/07 05:46:29;;;;;;;2.95;2.47;;;;;;;;;;5007194;28;20544;-64
2021/12/07 05:48:56;;;;;;;7.53;2.50;;;;;;;;;;5001436;28;20049;-64
2021/12/07 05:51:22;;;;;;;5.10;2.42;;;;;;;;;;5010357;28;20054;-65
2021/12/07 05:53:49;;;;;;;5.18;2.88;;;;;;;;;;5011315;28;20058;-65
2021/12/07 05:56:16;;;;;;;3.05;2.53;;;;;;;;;;5011393;28;20112;-65
2021/12/07 05:58:42;;;;;;;4.65;2.63;;;;;;;;;;5014251;28;20464;-65
2021/12/07 06:01:09;;;;;;;4.70;2.55;;;;;;;;;;5012642;28;20050;-65
2021/12/07 06:03:35;;;;;;;6.18;2.50;;;;;;;;;;4995360;28;20516;-65
2021/12/07 06:06:03;;;;;;;9.90;2.90;;;;;;;;;;4995431;28;20050;-65
2021/12/07 06:08:31;;;;;;;6.00;2.50;;;;;;;;;;4995359;28;20461;-64
2021/12/07 06:10:58;;;;;;;3.30;1.70;;;;;;;;;;4995464;28;20498;-66
2021/12/07 06:13:24;;;;;;;5.82;2.10;;;;;;;;;;4995214;28;20521;-65
2021/12/07 06:15:52;;;;;;;3.97;2.03;;;;;;;;;;4995084;28;20809;-66
2021/12/07 06:18:18;;;;;;;5.10;2.17;;;;;;;;;;4995874;28;20050;-66
2021/12/07 06:20:45;;;;;;;3.97;2.03;;;;;;;;;;4995833;28;20054;-65
2021/12/07 06:23:14;;;;;;;4.80;2.05;;;;;;;;;;5010070;28;20045;-66
2021/12/07 06:25:41;;;;;;;6.80;2.08;;;;;;;;;;5006041;28;20567;-67
2021/12/07 06:28:08;;;;;;;6.97;2.75;;;;;;;;;;5013561;28;20053;-66
2021/12/07 06:30:39;;;;;;;4.13;2.38;;;;;;;;;;5024383;28;20057;-66
2021/12/07 06:33:06;;;;;;;3.97;2.38;;;;;;;;;;5022134;28;20056;-67
2021/12/07 06:35:32;;;;;;;10.30;3.03;;;;;;;;;;5024090;28;20108;-67
2021/12/07 06:37:59;;;;;;;11.25;3.20;;;;;;;;;;5022423;28;20049;-66
2021/12/07 06:40:25;;;;;;;6.22;2.50;;;;;;;;;;5023455;28;20046;-67
2021/12/07 06:42:54;;;;;;;8.95;2.45;;;;;;;;;;5018243;28;20099;-66
2021/12/07 06:45:21;;;;;;;6.22;2.38;;;;;;;;;;5020051;28;20125;-65
2021/12/07 06:47:47;;;;;;;5.55;2.25;;;;;;;;;;5014991;28;20103;-65
2021/12/07 06:50:14;;;;;;;6.05;1.90;;;;;;;;;;5021777;28;20493;-65
2021/12/07 06:52:41;;;;;;;7.45;2.10;;;;;;;;;;5023467;28;20057;-66
2021/12/07 06:55:08;;;;;;;5.03;1.92;;;;;;;;;;5022350;28;20042;-65
2021/12/07 06:57:35;;;;;;;8.45;2.00;;;;;;;;;;5021944;28;20452;-65
2021/12/07 07:00:04;;;;;;;4.63;1.83;;;;;;;;;;5020314;28;20104;-66
2021/12/07 07:02:30;;;;;;;5.80;2.47;;;;;;;;;;5018371;28;20731;-65
2021/12/07 07:04:57;;;;;;;6.18;1.88;;;;;;;;;;5022104;28;20497;-65
2021/12/07 07:07:24;;;;;;;11.93;2.33;;;;;;;;;;5020305;28;20100;-65
2021/12/07 07:09:51;;;;;;;5.47;1.90;;;;;;;;;;5020215;28;20078;-65
2021/12/07 07:12:18;;;;;;;6.22;1.95;;;;;;;;;;5022279;28;20091;-65
2021/12/07 07:14:45;;;;;;;7.13;1.75;;;;;;;;;;5023082;28;20064;-64
2021/12/07 07:17:12;;;;;;;8.15;1.92;;;;;;;;;;5021005;28;20477;-67
2021/12/07 07:19:43;;;;;;;10.73;1.80;;;;;;;;;;5015218;28;20586;-67
2021/12/07 07:22:09;;;;;;;9.55;1.63;;;;;;;;;;5020697;28;20520;-65
2021/12/07 07:24:37;;;;;;;11.98;2.63;;;;;;;;;;5024997;28;20488;-65
2021/12/07 07:27:04;;;;;;;6.95;1.83;;;;;;;;;;5020321;28;20042;-66
2021/12/07 07:29:30;;;;;;;7.68;2.40;;;;;;;;;;5024801;28;20057;-65
2021/12/07 07:31:57;;;;;;;13.63;2.22;;;;;;;;;;5019985;28;20092;-65
2021/12/07 07:34:24;;;;;;;8.55;1.67;;;;;;;;;;5024407;28;20488;-66
2021/12/07 07:36:51;;;;;;;5.22;1.80;;;;;;;;;;5021939;28;20053;-65
2021/12/07 07:39:17;;;;;;;8.35;2.97;;;;;;;;;;5024455;28;20049;-65
2021/12/07 07:41:44;;;;;;;13.23;2.97;;;;;;;;;;5023710;28;20096;-66
2021/12/07 07:44:10;;;;;;;4.38;2.22;;;;;;;;;;5023646;28;20054;-66
2021/12/07 07:46:37;;;;;;;8.52;2.63;;;;;;;;;;5023417;28;20504;-65
2021/12/07 07:49:05;;;;;;;7.32;2.75;;;;;;;;;;5011245;28;20117;-64
2021/12/07 07:51:34;;;;;;;10.13;3.60;;;;;;;;;;5019953;28;20174;-64
2021/12/07 07:54:01;;;;;;;10.35;3.65;;;;;;;;;;5022285;28;20584;-64
2021/12/07 07:56:28;;;;;;;8.40;2.70;;;;;;;;;;5018384;28;20049;-65
2021/12/07 07:58:57;;;;;;;11.73;3.05;;;;;;;;;;5022313;28;20052;-64
2021/12/07 08:01:24;;;;;;;16.52;4.50;;;;;;;;;;5022982;28;20119;-65
2021/12/07 08:03:51;;;;;;;18.00;5.35;;;;;;;;;;5022046;28;20088;-67
2021/12/07 08:06:18;;;;;;;11.45;4.43;;;;;;;;;;5022940;28;20045;-67
2021/12/07 08:08:45;;;;;;;6.85;2.60;;;;;;;;;;5021037;28;20493;-67
2021/12/07 08:11:14;;;;;;;4.72;2.33;;;;;;;;;;5023497;28;20053;-68
2021/12/07 08:13:43;;;;;;;9.68;2.53;;;;;;;;;;5023937;28;20057;-68
2021/12/07 08:16:15;;;;;;;8.52;1.88;;;;;;;;;;5016591;28;20049;-67
2021/12/07 08:18:47;;;;;;;6.47;2.00;;;;;;;;;;5010872;28;20125;-69
2021/12/07 08:21:14;;;;;;;12.18;2.75;;;;;;;;;;5000554;28;20053;-69
2021/12/07 08:23:41;;;;;;;9.48;2.55;;;;;;;;;;5000770;28;20053;-67
2021/12/07 08:26:09;;;;;;;9.75;2.13;;;;;;;;;;5021531;28;20045;-68
2021/12/07 08:28:36;;;;;;;6.63;1.95;;;;;;;;;;5020328;28;20050;-68
2021/12/07 08:31:03;;;;;;;6.80;2.35;;;;;;;;;;5022594;28;20053;-66
2021/12/07 08:33:30;;;;;;;10.05;2.45;;;;;;;;;;5022968;28;20058;-69
2021/12/07 08:35:59;;;;;;;5.03;1.73;;;;;;;;;;5015972;28;20053;-68
2021/12/07 08:38:27;;;;;;;4.22;1.70;;;;;;;;;;5021412;28;20517;-67
2021/12/07 08:40:54;;;;;;;4.70;1.65;;;;;;;;;;5023674;28;20102;-66
2021/12/07 08:43:22;;;;;;;11.02;2.78;;;;;;;;;;5017322;28;20058;-67
2021/12/07 08:45:49;;;;;;;6.95;2.22;;;;;;;;;;5017424;28;20046;-67
2021/12/07 08:48:17;;;;;;;7.07;1.95;;;;;;;;;;5022435;28;20054;-66
2021/12/07 08:50:44;;;;;;;6.75;1.75;;;;;;;;;;5023360;28;20045;-66
2021/12/07 08:53:13;;;;;;;6.72;1.58;;;;;;;;;;5021948;28;20115;-66
2021/12/07 09:01:14;;;;;;;7.30;1.92;;;;;;;;;;5022162;28;20053;-68
2021/12/07 09:03:42;;;;;;;7.95;1.58;;;;;;;;;;5020945;28;20057;-68
2021/12/07 09:06:09;;;;;;;10.07;1.40;;;;;;;;;;5020217;28;20177;-68
2021/12/07 09:08:35;;;;;;;6.10;1.58;;;;;;;;;;5019762;28;20050;-66
2021/12/07 09:11:03;;;;;;;5.55;1.40;;;;;;;;;;5022922;28;20562;-66
2021/12/07 09:13:30;;;;;;;8.30;1.92;;;;;;;;;;5022553;28;20053;-66
2021/12/07 09:15:58;;;;;;;7.28;1.58;;;;;;;;;;5020873;28;20061;-65
2021/12/07 09:18:25;;;;;;;9.68;1.30;;;;;;;;;;5020237;28;20062;-64
2021/12/07 09:20:52;;;;;;;6.10;2.25;;;;;;;;;;5022468;28;20119;-66
2021/12/07 09:23:19;;;;;;;7.10;1.40;;;;;;;;;;5022379;28;20085;-65
2021/12/07 09:25:46;;;;;;;4.95;1.30;;;;;;;;;;5019158;28;20496;-67
2021/12/07 09:28:13;;;;;;;10.45;1.73;;;;;;;;;;5024331;28;20095;-64
2021/12/07 09:30:40;;;;;;;8.15;2.28;;;;;;;;;;5023756;28;20045;-65
2021/12/07 09:33:07;;;;;;;9.55;1.83;;;;;;;;;;5026509;28;20049;-66
2021/12/07 09:35:34;;;;;;;7.10;1.65;;;;;;;;;;5020169;28;20049;-64
2021/12/07 09:38:03;;;;;;;4.72;1.35;;;;;;;;;;5019714;28;20068;-67
2021/12/07 09:40:29;;;;;;;4.68;1.25;;;;;;;;;;5022553;28;20049;-67
2021/12/07 09:42:57;;;;;;;6.25;1.38;;;;;;;;;;5027097;28;20045;-67
2021/12/07 09:45:25;;;;;;;5.38;1.45;;;;;;;;;;5027006;28;20045;-66
2021/12/07 09:47:53;;;;;;;6.60;1.35;;;;;;;;;;5027231;28;20077;-66
2021/12/07 09:50:21;;;;;;;10.63;1.58;;;;;;;;;;5025476;28;20058;-67
2021/12/07 09:52:48;;;;;;;4.03;1.08;;;;;;;;;;5027490;28;20054;-67
2021/12/07 09:55:15;;;;;;;7.15;1.50;;;;;;;;;;5024846;28;20053;-65
2021/12/07 09:57:42;;;;;;;5.40;1.30;;;;;;;;;;5027065;28;20057;-66
2021/12/07 10:00:11;;;;;;;7.95;1.65;;;;;;;;;;5026794;28;20060;-66
2021/12/07 10:02:38;;;;;;;7.20;1.23;;;;;;;;;;5024419;28;20056;-66
2021/12/07 10:05:12;;;;;;;8.35;1.25;;;;;;;;;;5020674;28;20496;-67
2021/12/07 10:07:39;;;;;;;3.05;1.20;;;;;;;;;;5023900;28;20100;-66
2021/12/07 10:10:18;;;;;;;5.35;2.10;;;;;;;;;;5024237;28;20053;-68
2021/12/07 10:12:44;;;;;;;6.13;1.48;;;;;;;;;;5023950;28;20071;-69
2021/12/07 10:15:12;;;;;;;5.15;1.27;;;;;;;;;;5022418;28;20111;-68
2021/12/07 10:17:39;;;;;;;5.75;2.00;;;;;;;;;;5026671;28;20099;-68
2021/12/07 10:20:39;;;;;;;5.30;1.30;;;;;;;;;;5025054;28;20065;-68
2021/12/07 10:23:21;;;;;;;4.28;1.38;;;;;;;;;;5025254;28;20533;-68
2021/12/07 10:25:55;;;;;;;3.67;1.00;;;;;;;;;;5024337;28;20052;-68
2021/12/07 10:28:36;;;;;;;5.43;0.90;;;;;;;;;;5020270;28;20053;-66
2021/12/07 10:31:08;;;;;;;5.72;1.10;;;;;;;;;;5023826;28;20045;-68
2021/12/07 10:33:45;;;;;;;6.63;1.45;;;;;;;;;;5025375;28;20045;-69
2021/12/07 10:36:24;;;;;;;6.75;1.25;;;;;;;;;;5019487;28;20112;-68
2021/12/07 10:39:05;;;;;;;5.57;1.20;;;;;;;;;;5025459;28;20107;-67
2021/12/07 10:41:34;;;;;;;5.80;1.00;;;;;;;;;;5023019;28;20116;-67
2021/12/07 10:44:05;;;;;;;6.97;1.30;;;;;;;;;;5023977;28;20050;-68
2021/12/07 10:46:39;;;;;;;5.10;1.55;;;;;;;;;;5024209;28;20045;-70
2021/12/07 10:49:13;;;;;;;4.03;0.88;;;;;;;;;;5023526;28;20042;-68
2021/12/07 10:51:40;;;;;;;5.93;1.13;;;;;;;;;;5025696;28;20049;-68
2021/12/07 10:54:07;;;;;;;4.82;0.80;;;;;;;;;;5023541;28;20053;-67
2021/12/07 10:56:36;;;;;;;4.93;1.17;;;;;;;;;;5024966;28;20046;-67
2021/12/07 10:59:07;;;;;;;5.15;1.20;;;;;;;;;;5027721;28;20049;-67
2021/12/07 11:01:35;;;;;;;3.22;0.98;;;;;;;;;;5013567;28;20570;-66
2021/12/07 11:04:33;;;;;;;8.45;1.58;;;;;;;;;;5022548;28;20060;-65
2021/12/07 11:07:27;;;;;;;2.38;0.90;;;;;;;;;;5018765;28;20488;-65
2021/12/07 11:10:09;;;;;;;3.05;1.00;;;;;;;;;;5016315;28;20111;-66
2021/12/07 11:13:15;;;;;;;3.00;1.15;;;;;;;;;;5024729;28;20567;-66
2021/12/07 11:15:53;;;;;;;5.95;1.20;;;;;;;;;;5018474;28;20073;-65
2021/12/07 11:18:31;;;;;;;7.05;1.08;;;;;;;;;;5022077;28;20138;-68
2021/12/07 11:21:03;;;;;;;5.25;1.27;;;;;;;;;;5020982;28;20049;-66
2021/12/07 11:23:38;;;;;;;3.33;1.08;;;;;;;;;;5019066;28;20049;-66
2021/12/07 11:31:59;;;;;;;3.72;1.10;;;;;;;;;;5018166;28;20516;-68
2021/12/07 11:34:36;;;;;;;1.63;0.95;;;;;;;;;;5022047;28;20554;-68
2021/12/07 11:37:05;;;;;;;4.78;0.90;;;;;;;;;;5018767;28;20045;-67
2021/12/07 11:39:42;;;;;;;2.33;1.83;;;;;;;;;;5023560;28;20049;-67
2021/12/07 11:42:16;;;;;;;7.82;1.48;;;;;;;;;;5023770;28;20050;-67
2021/12/07 11:45:07;;;;;;;3.50;1.30;;;;;;;;;;5018263;28;20459;-66
2021/12/07 11:48:01;;;;;;;6.20;1.23;;;;;;;;;;5013220;28;20053;-67
2021/12/07 11:50:40;;;;;;;4.18;1.13;;;;;;;;;;5018288;28;20487;-66
2021/12/07 11:53:22;;;;;;;9.52;1.27;;;;;;;;;;5016838;28;20432;-66
2021/12/07 11:55:54;;;;;;;3.65;1.15;;;;;;;;;;5019923;28;20128;-68
2021/12/07 11:58:22;;;;;;;6.85;1.08;;;;;;;;;;5000806;28;20046;-67
2021/12/07 12:00:52;;;;;;;3.63;0.85;;;;;;;;;;5022781;28;20128;-69
2021/12/07 12:03:24;;;;;;;3.25;0.70;;;;;;;;;;5021842;28;20108;-68
2021/12/07 12:05:52;;;;;;;3.28;0.85;;;;;;;;;;5023985;28;20041;-68
2021/12/07 12:08:20;;;;;;;3.95;1.20;;;;;;;;;;5022526;28;20049;-68
2021/12/07 12:11:01;;;;;;;4.45;0.80;;;;;;;;;;5024587;28;20095;-67
2021/12/07 12:13:46;;;;;;;3.28;0.70;;;;;;;;;;5019918;28;20053;-67
2021/12/07 12:16:49;;;;;;;2.95;0.80;;;;;;;;;;5001196;28;20116;-70
2021/12/07 12:19:38;;;;;;;3.47;0.82;;;;;;;;;;4962471;28;20057;-67
2021/12/07 12:22:17;;;;;;;5.22;1.08;;;;;;;;;;5000798;28;20618;-67
2021/12/07 12:24:53;;;;;;;2.75;1.05;;;;;;;;;;5020991;28;20049;-67
2021/12/07 12:27:27;;;;;;;6.55;1.10;;;;;;;;;;5013508;28;20501;-69
2021/12/07 12:29:55;;;;;;;7.60;1.23;;;;;;;;;;5020646;28;20552;-68
2021/12/07 12:32:30;;;;;;;3.88;1.23;;;;;;;;;;5019402;28;20184;-68
2021/12/07 12:34:57;;;;;;;3.97;0.80;;;;;;;;;;5023755;28;20275;-66
2021/12/07 12:37:28;;;;;;;4.70;0.70;;;;;;;;;;5019216;28;20050;-67
2021/12/07 12:40:01;;;;;;;6.40;1.00;;;;;;;;;;5025119;28;20558;-66
2021/12/07 12:42:31;;;;;;;2.35;0.80;;;;;;;;;;5020886;28;20501;-66
2021/12/07 12:45:23;;;;;;;4.70;1.52;;;;;;;;;;5001269;28;20108;-65
2021/12/07 12:47:59;;;;;;;2.08;1.13;;;;;;;;;;5020147;28;20045;-66
2021/12/07 12:50:31;;;;;;;4.68;0.85;;;;;;;;;;5021715;28;20045;-67
2021/12/07 12:53:05;;;;;;;4.35;1.00;;;;;;;;;;5018545;28;20088;-66
2021/12/07 12:55:39;;;;;;;2.13;0.73;;;;;;;;;;5023113;28;20053;-67
2021/12/07 12:58:21;;;;;;;2.83;0.60;;;;;;;;;;5022304;28;20476;-65
2021/12/07 13:01:09;;;;;;;5.30;1.20;;;;;;;;;;5020692;28;20050;-66
2021/12/07 13:03:40;;;;;;;7.10;1.95;;;;;;;;;;5018199;28;20042;-66
2021/12/07 13:06:07;;;;;;;7.05;2.70;;;;;;;;;;5021651;28;20145;-66
2021/12/07 13:08:51;;;;;;;5.13;3.35;;;;;;;;;;5018678;28;20076;-66
2021/12/07 13:11:31;;;;;;;2.35;1.20;;;;;;;;;;5020669;28;20053;-66
2021/12/07 13:13:57;;;;;;;4.03;0.93;;;;;;;;;;5022203;28;20113;-66
2021/12/07 13:16:24;;;;;;;1.35;0.85;;;;;;;;;;5022254;28;20054;-66
2021/12/07 13:18:59;;;;;;;4.50;0.95;;;;;;;;;;5019009;28;20096;-65
2021/12/07 13:21:29;;;;;;;3.70;1.15;;;;;;;;;;5015248;28;20060;-66
2021/12/07 13:24:05;;;;;;;4.93;1.23;;;;;;;;;;5020962;28;20493;-66
2021/12/07 13:26:38;;;;;;;7.05;1.10;;;;;;;;;;5020218;28;20105;-66
2021/12/07 13:29:16;;;;;;;6.43;1.80;;;;;;;;;;5023368;28;20487;-67
2021/12/07 13:31:51;;;;;;;4.88;1.00;;;;;;;;;;5018447;28;20555;-66
2021/12/07 13:34:25;;;;;;;18.15;1.42;;;;;;;;;;5022159;28;20099;-66
2021/12/07 13:37:08;;;;;;;6.85;1.73;;;;;;;;;;5023704;28;20045;-67
2021/12/07 13:39:38;;;;;;;5.47;1.60;;;;;;;;;;5021063;28;20056;-67
2021/12/07 13:42:17;;;;;;;11.93;3.35;;;;;;;;;;5021804;28;20592;-67
2021/12/07 13:45:22;;;;;;;3.83;1.70;;;;;;;;;;5017481;28;20053;-66
2021/12/07 13:47:51;;;;;;;3.28;1.25;;;;;;;;;;4919060;29;20147;-67
2021/12/07 13:50:26;;;;;;;4.93;1.30;;;;;;;;;;4919629;29;20501;-66
2021/12/07 13:52:54;;;;;;;3.40;1.20;;;;;;;;;;4968632;28;20045;-67
2021/12/07 13:55:32;;;;;;;4.55;1.10;;;;;;;;;;5023005;28;20053;-67
2021/12/07 13:58:00;;;;;;;4.10;0.88;;;;;;;;;;5020768;28;20092;-67
2021/12/07 14:00:31;;;;;;;2.90;0.80;;;;;;;;;;5020620;28;20467;-67
2021/12/07 14:03:02;;;;;;;4.30;0.82;;;;;;;;;;5021019;28;20068;-65
2021/12/07 14:05:34;;;;;;;3.78;1.08;;;;;;;;;;5021447;28;20050;-66
2021/12/07 14:08:03;;;;;;;5.88;1.60;;;;;;;;;;5022619;28;20045;-67
2021/12/07 14:10:41;;;;;;;5.45;1.17;;;;;;;;;;5020371;28;20422;-66
2021/12/07 14:13:08;;;;;;;7.05;1.35;;;;;;;;;;5020779;28;20057;-67
2021/12/07 14:15:44;;;;;;;5.72;1.00;;;;;;;;;;5017899;28;20549;-65
2021/12/07 14:18:16;;;;;;;5.90;0.90;;;;;;;;;;5021464;28;20053;-66
2021/12/07 14:20:48;;;;;;;3.75;1.00;;;;;;;;;;5024620;28;20526;-66
2021/12/07 14:23:19;;;;;;;1.88;0.77;;;;;;;;;;5026909;28;20475;-66
2021/12/07 14:26:15;;;;;;;3.95;1.00;;;;;;;;;;5024131;28;20053;-66
2021/12/07 14:29:02;;;;;;;2.72;1.17;;;;;;;;;;5013387;28;20052;-66
2021/12/07 14:31:43;;;;;;;4.70;1.23;;;;;;;;;;5024413;28;20092;-67
2021/12/07 14:34:20;;;;;;;4.82;2.08;;;;;;;;;;5022073;28;20061;-67
2021/12/07 14:37:06;;;;;;;7.70;2.05;;;;;;;;;;5025670;28;20127;-67
2021/12/07 14:39:35;;;;;;;3.72;1.25;;;;;;;;;;5023891;28;20050;-65
2021/12/07 14:42:14;;;;;;;5.45;1.30;;;;;;;;;;5024420;28;20642;-67
2021/12/07 14:44:56;;;;;;;6.88;1.52;;;;;;;;;;5020261;28;20049;-66
2021/12/07 14:47:23;;;;;;;4.10;1.50;;;;;;;;;;5025278;28;20120;-65
2021/12/07 14:49:57;;;;;;;6.70;1.80;;;;;;;;;;5021979;28;20299;-65
2021/12/07 14:52:26;;;;;;;4.90;1.00;;;;;;;;;;5019803;28;20080;-66
2021/12/07 14:54:54;;;;;;;4.60;1.17;;;;;;;;;;5024244;28;20046;-67
2021/12/07 14:57:21;;;;;;;4.80;1.30;;;;;;;;;;5025309;28;20103;-66
2021/12/07 15:00:00;;;;;;;2.45;1.35;;;;;;;;;;5022477;28;20050;-66
2021/12/07 15:02:30;;;;;;;2.47;1.15;;;;;;;;;;5024944;28;20041;-66
2021/12/07 15:04:59;;;;;;;2.40;1.17;;;;;;;;;;5018166;28;20041;-67
2021/12/07 15:07:31;;;;;;;2.72;0.98;;;;;;;;;;5021483;28;20051;-66
2021/12/07 15:10:07;;;;;;;1.93;0.90;;;;;;;;;;5025060;28;20072;-66
2021/12/07 15:12:38;;;;;;;7.30;1.35;;;;;;;;;;5014621;28;20512;-64
2021/12/07 15:15:06;;;;;;;8.93;1.50;;;;;;;;;;5017887;28;20056;-69
2021/12/07 15:17:33;;;;;;;3.85;1.15;;;;;;;;;;5024714;28;20049;-71
2021/12/07 15:20:01;;;;;;;3.20;1.20;;;;;;;;;;5019214;28;20496;-69
2021/12/07 15:22:29;;;;;;;5.55;1.25;;;;;;;;;;5025013;28;20570;-70
2021/12/07 15:25:00;;;;;;;5.03;1.20;;;;;;;;;;5021724;28;20049;-73
2021/12/07 15:27:27;;;;;;;4.05;1.08;;;;;;;;;;5020966;28;20049;-71
2021/12/07 15:29:55;;;;;;;4.00;1.67;;;;;;;;;;5022587;28;20050;-68
2021/12/07 15:32:22;;;;;;;4.68;1.70;;;;;;;;;;5021132;28;20100;-67
2021/12/07 15:34:50;;;;;;;4.10;1.88;;;;;;;;;;5024968;28;20083;-67
2021/12/07 15:37:20;;;;;;;8.95;3.10;;;;;;;;;;5016974;28;20095;-67
2021/12/07 15:39:57;;;;;;;7.97;2.90;;;;;;;;;;5013190;28;20050;-69
2021/12/07 15:42:34;;;;;;;5.35;2.42;;;;;;;;;;5022815;28;20133;-66
2021/12/07 15:45:07;;;;;;;10.40;1.60;;;;;;;;;;5016044;28;20042;-66
2021/12/07 15:47:41;;;;;;;9.00;2.10;;;;;;;;;;5018076;28;20099;-67
2021/12/07 15:50:19;;;;;;;6.25;2.80;;;;;;;;;;5022354;28;20046;-67
2021/12/07 15:52:48;;;;;;;8.50;2.20;;;;;;;;;;5018662;28;20049;-68
2021/12/07 15:55:29;;;;;;;4.32;1.80;;;;;;;;;;5024206;28;20505;-68
2021/12/07 15:58:02;;;;;;;4.88;2.00;;;;;;;;;;5022846;28;20929;-68
2021/12/07 16:00:36;;;;;;;5.22;1.73;;;;;;;;;;5020440;28;20451;-66
2021/12/07 16:03:06;;;;;;;8.18;2.30;;;;;;;;;;5023601;28;20049;-67
2021/12/07 16:05:51;;;;;;;3.13;1.30;;;;;;;;;;5024313;28;20049;-67
2021/12/07 16:08:20;;;;;;;4.10;1.70;;;;;;;;;;5022523;28;20103;-67
2021/12/07 16:10:50;;;;;;;2.40;1.55;;;;;;;;;;5020579;28;20064;-69
2021/12/07 16:13:19;;;;;;;7.40;2.15;;;;;;;;;;5022854;28;20050;-69
2021/12/07 16:15:57;;;;;;;6.63;1.75;;;;;;;;;;5023408;28;20068;-65
2021/12/07 16:18:25;;;;;;;5.80;1.75;;;;;;;;;;5017192;28;20045;-67
2021/12/07 16:20:53;;;;;;;5.80;3.80;;;;;;;;;;5022111;28;20060;-67
2021/12/07 16:23:20;;;;;;;6.90;2.22;;;;;;;;;;5023811;28;20052;-68
2021/12/07 16:25:48;;;;;;;11.35;2.60;;;;;;;;;;5017925;28;20046;-66
2021/12/07 16:28:45;;;;;;;8.88;3.80;;;;;;;;;;5017655;28;20045;-65
2021/12/07 16:31:13;;;;;;;9.07;3.58;;;;;;;;;;5023281;28;20049;-66
2021/12/07 16:33:43;;;;;;;11.18;3.55;;;;;;;;;;5018015;28;20042;-67
2021/12/07 16:36:11;;;;;;;7.05;2.92;;;;;;;;;;5022049;28;20045;-67
2021/12/07 16:38:39;;;;;;;7.20;3.40;;;;;;;;;;5024050;28;20052;-64
2021/12/07 16:41:06;;;;;;;10.00;4.55;;;;;;;;;;5021773;28;20106;-67
2021/12/07 16:43:33;;;;;;;7.35;3.53;;;;;;;;;;5016602;28;20482;-66
2021/12/07 16:46:00;;;;;;;10.68;3.58;;;;;;;;;;5018555;28;20049;-67
2021/12/07 16:48:27;;;;;;;6.90;3.00;;;;;;;;;;5021258;28;20045;-66
2021/12/07 16:50:53;;;;;;;6.80;3.15;;;;;;;;;;5015808;28;20107;-67